Flight Track Log - Related Links

Times and Time Zones

All times are in EDT time to prevent confusion due to time zone crossing. See the CTL13 flight status page for this flight to view local times or setup timezone preferences in your user account.

Time Position Orientation Groundspeed Altitude Reporting Facility
EDT Latitude Longitude Course Direction KTS MPH feet Rate Location/Type
Fri 11:44:59 PM 41.8000 -87.7167 93° East 162 186 1,900  Level Chicago TRACON
Fri 11:45:59 PM 41.8000 -87.6500 90° East 177 204 2,800 500 Climbing Chicago TRACON
Fri 11:46:59 PM 41.8333 -87.6000 48° Northeast 198 228 2,900 50 Climbing Chicago TRACON
Fri 11:47:59 PM 41.8667 -87.5333 56° Northeast 200 230 2,900 130 Level Chicago TRACON
Fri 11:49:17 PM 41.9000 -87.4500 62° Northeast 193 222 3,200 497 Climbing Chicago TRACON
Fri 11:50:00 PM 41.7790 -87.3666 93° East  Level FlightAware Approximate
Fri 11:51:12 PM 41.9589 -87.3628 48° Northeast 186 214 4,500  Level Chicago Center
Fri 11:52:13 PM 41.9861 -87.3075 56° Northeast 180 207 5,000 492 Climbing Chicago Center
Fri 11:53:14 PM 42.0208 -87.2350 57° Northeast 189 217 5,500 541 Climbing Chicago Center
Fri 11:54:15 PM 42.0489 -87.1786 56° Northeast 182 209 6,100 590 Climbing Chicago Center
Fri 11:55:16 PM 42.0806 -87.1231 52° Northeast 185 213 6,700 443 Climbing Chicago Center
Fri 11:56:17 PM 42.1050 -87.0628 61° Northeast 185 213 7,000 148 Climbing Chicago Center
Fri 11:57:18 PM 42.1331 -87.0078 55° Northeast 191 220 7,000  Level Chicago Center
Fri 11:58:18 PM 42.1614 -86.9478 57° Northeast 191 220 7,000  Level Chicago Center
Fri 11:59:19 PM 42.1911 -86.8869 57° Northeast 195 224 7,000  Level Chicago Center
Sat 12:00:20 AM 42.2203 -86.8275 56° Northeast 192 221 7,000  Level Chicago Center
Sat 12:01:21 AM 42.2511 -86.7683 55° Northeast 193 222 7,000  Level Chicago Center
Sat 12:02:22 AM 42.2800 -86.7072 57° Northeast 194 223 7,000  Level Chicago Center
Sat 12:03:22 AM 42.3144 -86.6381 56° Northeast 194 223 7,000  Level Chicago Center
Sat 12:04:23 AM 42.3431 -86.5783 57° Northeast 192 221 7,000  Level Chicago Center
Sat 12:05:24 AM 42.3706 -86.5172 59° Northeast 191 220 7,000  Level Chicago Center
Sat 12:06:25 AM 42.3983 -86.4569 58° Northeast 191 220 7,000  Level Chicago Center
Sat 12:07:25 AM 42.4294 -86.3994 54° Northeast 189 217 7,000  Level Chicago Center
Sat 12:08:26 AM 42.4611 -86.3431 53° Northeast 190 219 7,000  Level Chicago Center
Sat 12:09:27 AM 42.4892 -86.2872 56° Northeast 184 212 7,000  Level Chicago Center
Sat 12:10:28 AM 42.5178 -86.2297 56° Northeast 184 212 7,000  Level Chicago Center
Sat 12:11:28 AM 42.5469 -86.1697 57° Northeast 189 217 7,000  Level Chicago Center
Sat 12:12:29 AM 42.5758 -86.1086 57° Northeast 192 221 7,000 49 Level Chicago Center
Sat 12:13:30 AM 42.6064 -86.0517 54° Northeast 189 217 7,100 -397 Climbing Chicago Center
Sat 12:14:30 AM 42.6417 -85.9789 57° Northeast 192 221 6,200 -1,041 Descending Chicago Center
Sat 12:15:31 AM 42.6744 -85.9153 55° Northeast 202 232 5,000 -1,180 Descending Chicago Center
Sat 12:16:32 AM 42.7083 -85.8544 53° Northeast 203 234 3,800 -992 Descending Chicago Center
Sat 12:17:32 AM 42.7417 -85.7914 54° Northeast 205 236 3,000 -397 Descending Chicago Center
Sat 12:18:33 AM 42.7711 -85.7297 57° Northeast 199 229 3,000  Level Chicago Center
Sat 12:19:34 AM 42.8000 -85.6731 55° Northeast 192 221 3,000 -50 Level Chicago Center
Sat 12:20:34 AM 42.8217 -85.6108 65° Northeast 190 219 2,900 -50 Descending Chicago Center
Sat 12:21:35 AM 42.8347 -85.5444 75° East 187 215 2,900  Level Chicago Center
Sat 12:22:35 AM 42.8494 -85.4806 73° East 182 209 2,900  Level Chicago Center
Sat 12:23:36 AM 42.8561 -85.4142 82° East 180 207 2,900  Level Chicago Center
Sat 12:24:37 AM 42.8614 -85.3500 84° East 176 203 2,900  Level Chicago Center
Sat 12:25:37 AM 42.8886 -85.3775 323° Northwest 148 170 2,900 -446 Level Chicago Center
Sat 12:26:38 AM 42.8906 -85.4192 274° West 123 142 2,000 -744 Descending Chicago Center
Sat 12:27:38 AM 42.8864 -85.4583 262° West 111 128 1,400 -600 Descending Chicago Center

Login

Don't have an account? Register now (free) for customized features, flight alerts, and more!